Time;durP1;ratioP1;P1;durP2;ratioP2;P2;SDS_P1;SDS_P2;PMS_P1;PMS_P2;Temp;Humidity;BMP_temperature;BMP_pressure;BME280_temperature;BME280_humidity;BME280_pressure;Samples;Min_cycle;Max_cycle;Signal;HPM_P1;HPM_P2
2021/01/27 00:01:18;;;;;;;4.53;3.88;;;0.70;99.90;;;;;;5094019;28;20652;-88
2021/01/27 00:03:44;;;;;;;4.88;3.80;;;0.70;99.90;;;;;;5093726;28;20205;-87
2021/01/27 00:06:11;;;;;;;6.13;4.13;;;0.70;99.90;;;;;;5095147;28;20576;-83
2021/01/27 00:08:38;;;;;;;4.82;3.78;;;0.70;99.90;;;;;;5094907;28;20200;-87
2021/01/27 00:11:05;;;;;;;6.90;3.92;;;0.80;99.90;;;;;;5094927;28;20290;-87
2021/01/27 00:13:31;;;;;;;4.95;4.35;;;0.70;99.90;;;;;;5095022;28;20200;-89
2021/01/27 00:15:57;;;;;;;6.28;4.32;;;0.70;99.90;;;;;;5095427;28;20264;-89
2021/01/27 00:18:24;;;;;;;5.38;4.80;;;0.70;99.90;;;;;;5095219;28;20223;-89
2021/01/27 00:20:50;;;;;;;3.85;3.33;;;0.70;99.90;;;;;;5094055;28;20294;-90
2021/01/27 00:23:16;;;;;;;5.30;3.63;;;0.70;99.90;;;;;;5094488;28;20615;-85
2021/01/27 00:25:44;;;;;;;5.57;3.22;;;0.70;99.90;;;;;;5094712;28;20212;-85
2021/01/27 00:28:10;;;;;;;4.68;3.10;;;0.70;99.90;;;;;;5094788;28;20229;-87
2021/01/27 00:30:39;;;;;;;4.68;3.65;;;0.70;99.90;;;;;;5094996;28;20219;-86
2021/01/27 00:33:07;;;;;;;3.97;3.15;;;0.80;99.90;;;;;;5095278;28;20201;-90
2021/01/27 00:35:36;;;;;;;4.03;3.28;;;0.80;99.90;;;;;;5093908;28;20233;-90
2021/01/27 00:38:09;;;;;;;4.22;3.90;;;0.80;99.90;;;;;;5094362;28;20196;-91
2021/01/27 00:40:35;;;;;;;7.00;4.07;;;0.80;99.90;;;;;;5095100;28;20201;-83
2021/01/27 00:43:02;;;;;;;4.18;3.58;;;0.80;99.90;;;;;;5094576;28;20629;-85
2021/01/27 00:45:29;;;;;;;6.05;5.25;;;0.80;99.90;;;;;;5094502;28;20265;-88
2021/01/27 00:47:55;;;;;;;13.13;4.25;;;0.80;99.90;;;;;;5095208;28;20200;-89
2021/01/27 00:50:22;;;;;;;4.28;3.92;;;0.90;99.90;;;;;;5081637;28;20351;-91
2021/01/27 00:52:48;;;;;;;6.40;4.53;;;0.90;99.90;;;;;;5075173;28;20535;-90
2021/01/27 00:55:18;;;;;;;5.10;4.53;;;0.90;99.90;;;;;;5075377;28;20324;-90
2021/01/27 00:57:45;;;;;;;5.82;3.90;;;0.90;99.90;;;;;;5076969;28;20316;-90
2021/01/27 01:00:18;;;;;;;4.22;3.83;;;0.90;99.90;;;;;;5076981;28;20198;-83
2021/01/27 01:02:44;;;;;;;5.07;4.28;;;0.90;99.90;;;;;;5086801;28;20205;-84
2021/01/27 01:05:13;;;;;;;7.65;4.30;;;0.90;99.90;;;;;;5095754;28;20205;-87
2021/01/27 01:07:42;;;;;;;11.95;5.30;;;0.90;99.90;;;;;;5056292;28;20218;-86
2021/01/27 01:10:09;;;;;;;5.45;4.22;;;0.90;99.90;;;;;;5046919;28;20392;-90
2021/01/27 01:12:35;;;;;;;5.05;3.85;;;0.90;99.90;;;;;;5037745;28;20187;-90
2021/01/27 01:15:02;;;;;;;7.05;3.88;;;0.90;99.90;;;;;;5039061;28;20246;-91
2021/01/27 01:17:29;;;;;;;6.95;3.80;;;0.90;99.90;;;;;;5040905;28;20270;-84
2021/01/27 01:19:55;;;;;;;7.38;4.47;;;0.90;99.90;;;;;;5059002;28;20269;-85
2021/01/27 01:22:22;;;;;;;4.85;4.38;;;0.90;99.90;;;;;;5073127;28;20262;-86
2021/01/27 01:24:48;;;;;;;6.80;4.40;;;0.90;99.90;;;;;;5072820;28;20214;-86
2021/01/27 01:27:14;;;;;;;5.32;4.70;;;1.00;99.90;;;;;;5114864;28;20224;-88
2021/01/27 01:29:41;;;;;;;6.50;4.00;;;1.00;99.90;;;;;;5119600;28;20212;-91
2021/01/27 01:32:07;;;;;;;3.90;3.53;;;1.00;99.90;;;;;;5119488;28;20193;-88
2021/01/27 01:34:34;;;;;;;4.95;4.00;;;1.00;99.90;;;;;;5112257;28;20256;-82
2021/01/27 01:37:01;;;;;;;5.65;3.55;;;1.10;99.90;;;;;;5104353;28;20272;-83
2021/01/27 01:39:27;;;;;;;4.75;4.15;;;1.10;99.90;;;;;;5101397;28;20193;-88
2021/01/27 01:41:54;;;;;;;6.57;4.10;;;1.10;99.90;;;;;;5095607;28;20205;-89
2021/01/27 01:44:20;;;;;;;5.97;4.97;;;1.10;99.90;;;;;;5095413;28;20287;-93
2021/01/27 01:46:46;;;;;;;8.45;4.85;;;1.10;99.90;;;;;;5095698;28;20213;-89
2021/01/27 01:49:14;;;;;;;5.20;3.60;;;1.00;99.90;;;;;;5095570;28;20247;-93
2021/01/27 01:51:44;;;;;;;5.10;4.20;;;1.00;99.90;;;;;;5095863;28;20204;-93
2021/01/27 01:54:16;;;;;;;5.57;4.03;;;1.00;99.90;;;;;;5094168;28;20361;-83
2021/01/27 01:56:55;;;;;;;5.63;4.20;;;0.90;99.90;;;;;;5039272;28;20212;-89
2021/01/27 01:59:21;;;;;;;7.68;4.90;;;0.80;99.90;;;;;;5096104;28;20290;-91
2021/01/27 02:01:52;;;;;;;4.78;4.32;;;0.80;99.90;;;;;;5096320;28;20195;-93
2021/01/27 02:04:20;;;;;;;5.90;4.50;;;0.80;99.90;;;;;;5095633;28;20199;-92
2021/01/27 02:06:47;;;;;;;7.47;4.40;;;0.70;99.90;;;;;;5096310;28;20671;-90
2021/01/27 02:09:13;;;;;;;7.18;5.07;;;0.70;99.90;;;;;;5093393;28;20197;-92
2021/01/27 02:11:57;;;;;;;11.40;4.55;;;0.70;99.90;;;;;;5094079;28;20205;-84
2021/01/27 02:14:43;;;;;;;6.38;5.15;;;0.70;99.90;;;;;;5094723;28;20243;-90
2021/01/27 02:17:16;;;;;;;5.00;4.18;;;0.70;99.90;;;;;;5094972;28;20379;-91
2021/01/27 02:20:07;;;;;;;8.07;4.65;;;0.70;99.90;;;;;;5095006;28;20264;-92
2021/01/27 02:23:01;;;;;;;5.15;4.32;;;0.80;99.90;;;;;;5095756;28;20715;-90
2021/01/27 02:26:11;;;;;;;8.25;4.93;;;0.80;99.90;;;;;;5100098;28;20275;-92
2021/01/27 02:28:56;;;;;;;8.13;5.07;;;0.80;99.90;;;;;;5062497;28;20727;-84
2021/01/27 02:31:33;;;;;;;6.95;4.80;;;0.80;99.90;;;;;;5098069;28;20609;-90
2021/01/27 02:34:49;;;;;;;4.18;3.40;;;0.90;99.90;;;;;;5097670;28;20292;-90
2021/01/27 02:37:23;;;;;;;5.50;4.47;;;0.90;99.90;;;;;;5036821;28;20202;-89
2021/01/27 02:39:53;;;;;;;6.00;4.28;;;0.90;99.90;;;;;;5096087;28;20284;-93
2021/01/27 02:42:24;;;;;;;6.65;5.93;;;0.90;99.90;;;;;;5097277;28;20196;-91
2021/01/27 02:44:58;;;;;;;4.53;3.95;;;0.90;99.90;;;;;;5094500;28;20248;-93
2021/01/27 02:47:28;;;;;;;7.20;4.40;;;0.90;99.90;;;;;;5099259;28;20283;-86
2021/01/27 02:50:01;;;;;;;4.47;3.67;;;0.80;99.90;;;;;;5097685;28;20312;-88
2021/01/27 02:52:33;;;;;;;7.88;4.03;;;0.80;99.90;;;;;;5085028;28;20290;-87
2021/01/27 02:55:06;;;;;;;7.30;4.18;;;0.90;99.90;;;;;;5081218;28;20257;-91
2021/01/27 02:57:46;;;;;;;7.22;4.90;;;0.90;99.90;;;;;;5081388;28;20227;-92
2021/01/27 03:00:19;;;;;;;5.75;4.95;;;0.90;99.90;;;;;;5080321;28;20201;-91
2021/01/27 03:02:50;;;;;;;4.55;4.15;;;0.90;99.90;;;;;;5080090;28;20270;-91
2021/01/27 03:05:21;;;;;;;5.97;3.70;;;0.90;99.90;;;;;;5075473;28;20248;-86
2021/01/27 03:07:51;;;;;;;4.43;3.90;;;1.00;99.90;;;;;;5077881;28;20202;-88
2021/01/27 03:10:22;;;;;;;5.72;4.57;;;1.00;99.90;;;;;;5079084;28;20212;-91
2021/01/27 03:12:49;;;;;;;7.05;4.28;;;0.90;99.90;;;;;;5027430;28;20205;-92
2021/01/27 03:15:16;;;;;;;5.25;3.97;;;1.00;99.90;;;;;;5079970;28;20224;-93
2021/01/27 03:17:44;;;;;;;7.70;4.50;;;0.90;99.90;;;;;;5078341;28;20265;-94
2021/01/27 03:20:19;;;;;;;8.32;4.78;;;0.90;99.90;;;;;;5085654;28;20211;-92
2021/01/27 03:22:48;;;;;;;4.18;3.78;;;0.90;99.90;;;;;;5097547;28;20208;-85
2021/01/27 03:25:20;;;;;;;5.20;4.45;;;0.90;99.90;;;;;;5097080;28;20296;-85
2021/01/27 03:27:55;;;;;;;4.15;3.20;;;0.90;99.90;;;;;;5098226;28;20270;-91
2021/01/27 03:30:22;;;;;;;11.27;4.40;;;0.90;99.90;;;;;;5095233;28;20205;-92
2021/01/27 03:32:55;;;;;;;7.28;4.35;;;0.90;99.90;;;;;;5098965;28;20304;-91
2021/01/27 03:35:28;;;;;;;5.28;3.80;;;0.90;99.90;;;;;;5097885;28;20228;-95
2021/01/27 03:37:59;;;;;;;6.43;4.20;;;1.00;99.90;;;;;;5099113;28;20205;-93
2021/01/27 03:40:28;;;;;;;5.07;4.53;;;0.90;99.90;;;;;;5097712;28;20664;-86
2021/01/27 03:43:02;;;;;;;4.90;4.40;;;1.00;99.90;;;;;;5096996;28;20288;-88
2021/01/27 03:45:33;;;;;;;6.75;4.65;;;1.00;99.90;;;;;;5098346;28;20209;-90
2021/01/27 03:48:07;;;;;;;6.38;4.03;;;1.00;99.90;;;;;;5099511;28;20545;-89
2021/01/27 03:50:36;;;;;;;6.20;4.93;;;1.10;99.90;;;;;;5086901;28;20298;-93
2021/01/27 03:53:06;;;;;;;4.68;3.90;;;1.00;99.90;;;;;;5080437;28;20194;-93
2021/01/27 03:55:38;;;;;;;5.35;4.47;;;0.90;99.90;;;;;;5080326;28;20316;-92
2021/01/27 03:58:10;;;;;;;6.95;4.63;;;0.90;99.90;;;;;;5077635;28;20205;-87
2021/01/27 04:00:38;;;;;;;3.90;3.33;;;1.00;99.90;;;;;;5075225;28;20233;-87
2021/01/27 04:03:11;;;;;;;8.43;4.95;;;1.00;99.90;;;;;;5073201;28;20202;-91
2021/01/27 04:05:38;;;;;;;7.53;4.65;;;1.00;99.90;;;;;;5076298;28;20234;-92
2021/01/27 04:08:05;;;;;;;5.80;3.75;;;1.00;99.90;;;;;;5070541;28;20210;-90
2021/01/27 04:10:31;;;;;;;6.47;4.63;;;0.90;99.90;;;;;;5077369;28;20241;-92
2021/01/27 04:12:58;;;;;;;5.25;4.75;;;0.90;99.90;;;;;;5076935;28;20225;-92
2021/01/27 04:15:25;;;;;;;7.45;4.65;;;0.80;99.90;;;;;;5076141;28;20235;-84
2021/01/27 04:17:52;;;;;;;5.63;3.97;;;0.90;99.90;;;;;;5023928;28;20205;-89
2021/01/27 04:20:19;;;;;;;5.03;4.10;;;0.90;99.90;;;;;;5072528;28;20202;-89
2021/01/27 04:22:47;;;;;;;10.68;4.20;;;0.90;99.90;;;;;;5076499;28;20193;-92
2021/01/27 04:25:15;;;;;;;5.70;5.00;;;0.80;99.90;;;;;;5076047;28;20236;-90
2021/01/27 04:27:41;;;;;;;6.25;4.53;;;0.80;99.90;;;;;;5076552;28;20288;-92
2021/01/27 04:30:11;;;;;;;4.47;3.85;;;0.80;99.90;;;;;;5074299;28;20205;-92
2021/01/27 04:32:37;;;;;;;5.80;4.90;;;0.80;99.90;;;;;;5076532;28;20285;-92
2021/01/27 04:35:05;;;;;;;5.75;3.88;;;0.80;99.90;;;;;;5069976;28;20316;-89
2021/01/27 04:37:31;;;;;;;8.95;5.78;;;0.80;99.90;;;;;;5076133;28;20273;-89
2021/01/27 04:39:58;;;;;;;6.53;5.03;;;0.80;99.90;;;;;;5075504;28;20202;-92
2021/01/27 04:42:29;;;;;;;6.90;4.70;;;0.80;99.90;;;;;;5072812;28;20637;-89
2021/01/27 04:44:57;;;;;;;5.85;4.15;;;0.80;99.90;;;;;;5025091;28;20205;-92
2021/01/27 04:47:31;;;;;;;8.23;3.97;;;0.80;99.90;;;;;;5072097;28;20206;-93
2021/01/27 04:50:01;;;;;;;9.07;4.90;;;0.80;99.90;;;;;;5075210;28;20584;-93
2021/01/27 04:52:58;;;;;;;7.65;4.40;;;0.80;99.90;;;;;;5075142;28;20231;-86
2021/01/27 04:56:02;;;;;;;5.70;5.13;;;0.70;99.90;;;;;;5076001;28;20305;-88
2021/01/27 04:58:39;;;;;;;7.15;5.20;;;0.70;99.90;;;;;;5054502;28;20284;-92
2021/01/27 05:01:23;;;;;;;6.95;4.18;;;0.70;99.90;;;;;;5051907;28;20241;-94
2021/01/27 05:04:04;;;;;;;6.05;4.18;;;0.70;99.90;;;;;;5053701;28;20246;-92
2021/01/27 05:06:39;;;;;;;6.88;5.30;;;0.70;99.90;;;;;;5054944;28;20206;-93
2021/01/27 05:09:10;;;;;;;6.53;5.25;;;0.70;99.90;;;;;;5051415;28;20194;-87
2021/01/27 05:11:38;;;;;;;4.50;3.47;;;0.70;99.90;;;;;;5053605;28;20289;-88
2021/01/27 05:14:08;;;;;;;6.97;4.25;;;0.80;99.90;;;;;;5053262;28;20214;-88
2021/01/27 05:16:35;;;;;;;5.38;4.28;;;0.70;99.90;;;;;;5064503;28;20681;-92
2021/01/27 05:19:05;;;;;;;5.25;4.05;;;0.70;99.90;;;;;;5075835;28;20201;-90
2021/01/27 05:21:36;;;;;;;3.85;3.38;;;0.80;99.90;;;;;;5042164;28;20213;-92
2021/01/27 05:24:04;;;;;;;7.22;3.38;;;0.70;99.90;;;;;;5091812;28;20345;-92
2021/01/27 05:26:36;;;;;;;4.90;3.58;;;0.70;99.90;;;;;;5094671;28;20208;-91
2021/01/27 05:29:09;;;;;;;10.73;7.25;;;0.70;99.90;;;;;;5094213;28;20228;-88
2021/01/27 05:31:58;;;;;;;9.40;7.00;;;0.70;99.90;;;;;;5095552;28;20287;-88
2021/01/27 05:34:35;;;;;;;8.32;5.97;;;0.70;99.90;;;;;;5096657;28;20276;-92
2021/01/27 05:37:03;;;;;;;14.63;5.63;;;0.60;99.90;;;;;;5117856;28;20236;-93
2021/01/27 05:39:31;;;;;;;4.70;3.90;;;0.70;99.90;;;;;;5116248;28;20234;-93
2021/01/27 05:42:21;;;;;;;6.53;4.65;;;0.60;99.90;;;;;;5114624;28;20173;-86
2021/01/27 05:44:51;;;;;;;6.35;4.25;;;0.50;99.90;;;;;;5114925;28;20201;-86
2021/01/27 05:47:32;;;;;;;10.88;5.38;;;0.50;99.90;;;;;;5118974;28;20185;-88
2021/01/27 05:50:06;;;;;;;6.30;4.03;;;0.50;99.90;;;;;;5116851;28;20229;-86
2021/01/27 05:52:32;;;;;;;6.78;3.85;;;0.50;99.90;;;;;;5113322;28;20201;-86
2021/01/27 05:55:07;;;;;;;7.60;4.70;;;0.60;99.90;;;;;;5111530;28;20240;-89
2021/01/27 05:57:34;;;;;;;4.82;4.22;;;0.60;99.90;;;;;;5096087;28;20333;-91
2021/01/27 06:00:11;;;;;;;6.68;4.15;;;0.60;99.90;;;;;;5103875;28;20216;-91
2021/01/27 06:02:41;;;;;;;5.38;3.97;;;0.70;99.90;;;;;;5109523;28;20199;-86
2021/01/27 06:05:14;;;;;;;5.90;4.25;;;0.80;99.90;;;;;;5097473;28;20205;-89
2021/01/27 06:07:41;;;;;;;4.88;3.50;;;0.80;99.90;;;;;;5097304;28;20200;-89
2021/01/27 06:10:31;;;;;;;4.47;3.65;;;0.90;99.90;;;;;;5075380;28;20249;-90
2021/01/27 06:13:13;;;;;;;3.20;2.70;;;1.00;99.90;;;;;;5076760;28;20256;-92
2021/01/27 06:15:42;;;;;;;4.13;2.78;;;1.10;99.90;;;;;;5078684;28;20229;-91
2021/01/27 06:18:24;;;;;;;6.47;2.95;;;1.00;99.90;;;;;;5078436;28;20205;-93
2021/01/27 06:21:08;;;;;;;4.13;3.72;;;1.10;99.90;;;;;;5079312;28;20257;-88
2021/01/27 06:24:05;;;;;;;3.60;3.20;;;1.10;99.90;;;;;;5075320;28;20233;-89
2021/01/27 06:27:09;;;;;;;5.72;4.18;;;1.10;99.90;;;;;;5073417;28;20351;-89
2021/01/27 06:30:02;;;;;;;5.88;3.83;;;1.20;99.90;;;;;;5074099;28;20276;-90
2021/01/27 06:32:42;;;;;;;5.28;4.20;;;1.10;99.90;;;;;;5024770;28;20205;-92
2021/01/27 06:35:25;;;;;;;4.28;3.88;;;1.20;99.90;;;;;;5075468;28;20221;-93
2021/01/27 06:38:11;;;;;;;3.80;3.42;;;1.20;99.90;;;;;;5076542;28;20189;-91
2021/01/27 06:40:53;;;;;;;7.03;5.03;;;1.20;99.90;;;;;;5074592;28;20224;-90
2021/01/27 06:43:48;;;;;;;6.15;4.03;;;1.20;99.90;;;;;;5069121;28;20244;-89
2021/01/27 06:46:37;;;;;;;8.45;4.63;;;1.20;99.90;;;;;;5078662;28;20227;-92
2021/01/27 06:49:46;;;;;;;5.28;3.40;;;1.10;99.90;;;;;;5049465;28;20214;-93
2021/01/27 06:52:25;;;;;;;9.68;3.80;;;1.00;99.90;;;;;;5080851;28;20290;-93
2021/01/27 06:55:05;;;;;;;10.55;6.95;;;1.10;99.90;;;;;;5074275;28;20283;-86
2021/01/27 06:57:52;;;;;;;7.90;4.38;;;1.10;99.90;;;;;;5073723;28;20201;-86
2021/01/27 07:00:32;;;;;;;4.55;4.15;;;1.10;99.90;;;;;;5071992;28;20206;-90
2021/01/27 07:03:30;;;;;;;4.68;3.67;;;1.10;99.90;;;;;;5080318;28;20302;-92
2021/01/27 07:06:38;;;;;;;4.07;3.63;;;1.10;99.90;;;;;;5075648;28;20194;-90
2021/01/27 07:09:34;;;;;;;7.60;3.78;;;1.10;99.90;;;;;;5078061;28;20284;-93
2021/01/27 07:12:18;;;;;;;6.43;3.70;;;1.10;99.90;;;;;;5075671;28;20213;-93
2021/01/27 07:15:04;;;;;;;5.53;3.22;;;1.20;99.90;;;;;;5074819;28;20264;-88
2021/01/27 07:18:01;;;;;;;5.25;3.97;;;1.20;99.90;;;;;;5078200;28;20209;-89
2021/01/27 07:20:31;;;;;;;5.68;4.25;;;1.30;99.90;;;;;;5074251;28;20567;-89
2021/01/27 07:23:07;;;;;;;2.90;2.60;;;1.30;99.90;;;;;;5076222;28;20202;-93
2021/01/27 07:25:52;;;;;;;3.50;3.20;;;1.40;99.90;;;;;;5082207;28;20231;-92
2021/01/27 07:28:27;;;;;;;2.88;1.95;;;1.50;99.90;;;;;;5078026;28;20289;-93
2021/01/27 07:31:00;;;;;;;3.35;2.33;;;1.70;99.90;;;;;;5082126;28;20200;-86
2021/01/27 07:33:36;;;;;;;4.40;2.40;;;1.80;99.90;;;;;;5077508;28;20324;-90
2021/01/27 07:36:14;;;;;;;2.88;2.08;;;1.90;99.90;;;;;;5077792;28;20229;-93
2021/01/27 07:38:41;;;;;;;2.50;2.30;;;1.90;99.90;;;;;;5080238;28;20251;-92
2021/01/27 07:41:12;;;;;;;3.10;2.60;;;2.00;99.90;;;;;;5076081;28;20201;-92
2021/01/27 07:43:50;;;;;;;3.15;2.90;;;2.00;99.90;;;;;;5087570;28;20225;-94
2021/01/27 07:46:23;;;;;;;2.63;2.25;;;2.00;99.90;;;;;;5100221;28;20197;-87
2021/01/27 07:48:57;;;;;;;2.90;2.70;;;2.00;99.90;;;;;;5087378;28;20202;-86
2021/01/27 07:51:27;;;;;;;5.72;2.20;;;2.10;99.90;;;;;;5088653;28;20318;-92
2021/01/27 07:54:00;;;;;;;3.90;2.83;;;2.20;99.90;;;;;;5096620;28;20568;-89
2021/01/27 07:56:33;;;;;;;5.55;3.45;;;2.10;99.90;;;;;;5095523;28;20695;-87
2021/01/27 07:59:10;;;;;;;5.25;3.58;;;2.20;99.90;;;;;;5096350;28;20240;-88
2021/01/27 08:01:42;;;;;;;3.72;2.85;;;2.20;99.90;;;;;;5096738;28;20680;-93
2021/01/27 08:04:21;;;;;;;3.50;2.65;;;2.20;99.90;;;;;;5094493;28;20213;-90
2021/01/27 08:06:50;;;;;;;4.68;3.03;;;2.20;99.90;;;;;;5094610;28;20204;-86
2021/01/27 08:09:29;;;;;;;4.75;2.90;;;2.60;99.90;;;;;;5095637;28;20232;-86
2021/01/27 08:12:14;;;;;;;6.00;2.88;;;3.00;99.90;;;;;;5099372;28;20197;-91
2021/01/27 08:15:03;;;;;;;3.03;2.75;;;3.10;99.90;;;;;;5099130;28;20208;-90
2021/01/27 08:18:14;;;;;;;3.35;2.58;;;2.80;99.90;;;;;;5098245;28;20618;-91
2021/01/27 08:20:42;;;;;;;3.22;2.92;;;2.70;99.90;;;;;;5086476;28;20200;-91
2021/01/27 08:23:11;;;;;;;4.30;3.90;;;2.60;99.90;;;;;;5095269;28;20212;-92
2021/01/27 08:25:55;;;;;;;4.10;3.28;;;2.60;99.90;;;;;;5094640;28;20296;-87
2021/01/27 08:28:26;;;;;;;3.40;3.10;;;2.40;99.90;;;;;;5095878;28;20264;-91
2021/01/27 08:31:22;;;;;;;4.43;3.88;;;2.40;99.90;;;;;;5094762;28;20201;-87
2021/01/27 08:33:57;;;;;;;7.35;3.55;;;2.40;99.90;;;;;;5093050;28;20201;-87
2021/01/27 08:37:01;;;;;;;3.75;3.42;;;2.40;99.90;;;;;;5094224;28;20233;-89
2021/01/27 08:39:27;;;;;;;6.20;4.72;;;2.40;99.90;;;;;;5094530;28;20200;-88
2021/01/27 08:41:59;;;;;;;4.10;3.70;;;2.40;99.90;;;;;;5094096;28;20205;-85
2021/01/27 08:44:30;;;;;;;9.20;6.45;;;2.30;99.90;;;;;;5091500;28;20228;-87
2021/01/27 08:47:00;;;;;;;6.30;4.57;;;2.20;99.90;;;;;;5094841;28;20296;-89
2021/01/27 08:49:50;;;;;;;7.45;6.00;;;2.20;99.90;;;;;;5092808;28;20292;-88
2021/01/27 08:52:34;;;;;;;10.52;5.00;;;2.20;99.90;;;;;;5092898;28;20200;-89
2021/01/27 08:55:01;;;;;;;9.10;5.90;;;2.10;99.90;;;;;;5094112;28;20228;-87
2021/01/27 08:57:29;;;;;;;7.93;5.70;;;2.10;99.90;;;;;;5094048;28;20562;-88
2021/01/27 09:00:08;;;;;;;6.25;4.28;;;2.20;99.90;;;;;;5094322;28;20204;-88
2021/01/27 09:02:47;;;;;;;5.07;4.57;;;2.10;99.90;;;;;;5093781;28;20283;-87
2021/01/27 09:05:37;;;;;;;5.32;4.63;;;2.10;99.90;;;;;;5092777;28;20246;-86
2021/01/27 09:08:12;;;;;;;6.07;4.18;;;2.20;99.90;;;;;;5094160;28;20670;-85
2021/01/27 09:10:40;;;;;;;7.70;5.45;;;2.10;99.90;;;;;;5096271;28;20214;-84
2021/01/27 09:13:35;;;;;;;6.78;5.18;;;2.10;99.90;;;;;;5094551;28;20671;-83
2021/01/27 09:16:04;;;;;;;6.75;5.90;;;2.20;99.90;;;;;;5080853;28;20354;-84
2021/01/27 09:18:33;;;;;;;9.35;6.55;;;2.20;99.90;;;;;;5094820;28;20288;-90
2021/01/27 09:21:10;;;;;;;8.18;6.10;;;2.20;99.90;;;;;;5094956;28;20241;-84
2021/01/27 09:23:36;;;;;;;6.97;4.47;;;2.30;99.90;;;;;;5075650;28;20201;-84
2021/01/27 09:26:13;;;;;;;9.43;4.78;;;2.30;99.90;;;;;;5074965;28;20205;-85
2021/01/27 09:28:39;;;;;;;7.63;5.28;;;2.30;99.90;;;;;;5073748;28;20207;-87
2021/01/27 09:31:13;;;;;;;6.53;5.75;;;2.20;99.90;;;;;;5074041;28;20233;-83
2021/01/27 09:33:40;;;;;;;6.18;5.30;;;2.30;99.90;;;;;;5072824;28;20284;-83
2021/01/27 09:36:11;;;;;;;4.63;4.20;;;2.30;99.90;;;;;;5079713;28;20233;-90
2021/01/27 09:38:37;;;;;;;7.22;4.95;;;2.40;99.90;;;;;;5082144;28;20228;-87
2021/01/27 09:41:08;;;;;;;4.82;4.43;;;2.40;99.90;;;;;;5098323;28;20265;-84
2021/01/27 09:43:40;;;;;;;5.15;4.65;;;2.50;99.90;;;;;;5096748;28;20300;-81
2021/01/27 09:46:25;;;;;;;5.30;4.80;;;2.60;99.90;;;;;;5093153;28;20201;-82
2021/01/27 09:48:54;;;;;;;6.03;5.45;;;2.60;99.90;;;;;;5111514;28;20686;-80
2021/01/27 09:51:22;;;;;;;7.25;5.63;;;2.50;99.90;;;;;;5110303;28;20258;-80
2021/01/27 09:53:49;;;;;;;12.05;5.80;;;2.50;99.90;;;;;;5076009;28;20209;-84
2021/01/27 09:56:18;;;;;;;8.77;5.85;;;2.50;99.90;;;;;;5106912;28;20252;-81
2021/01/27 09:58:45;;;;;;;7.97;6.03;;;2.50;99.90;;;;;;5115538;28;20236;-82
2021/01/27 10:01:16;;;;;;;9.63;6.63;;;2.50;99.90;;;;;;5105874;28;20233;-82
2021/01/27 10:03:45;;;;;;;8.15;6.50;;;2.40;99.90;;;;;;5097328;28;20254;-83
2021/01/27 10:06:34;;;;;;;7.07;6.38;;;2.50;99.90;;;;;;5094587;28;20258;-82
2021/01/27 10:09:03;;;;;;;6.20;5.60;;;2.50;99.90;;;;;;5093283;28;20283;-83
2021/01/27 10:11:32;;;;;;;7.90;5.38;;;2.40;99.90;;;;;;5092894;28;20205;-88
2021/01/27 10:14:04;;;;;;;6.07;5.40;;;2.50;99.90;;;;;;5096232;28;20225;-85
2021/01/27 10:16:31;;;;;;;10.63;8.35;;;2.70;99.90;;;;;;5092860;28;20664;-85
2021/01/27 10:19:04;;;;;;;7.60;6.75;;;2.70;99.90;;;;;;5092989;28;20208;-82
2021/01/27 10:21:41;;;;;;;7.75;6.28;;;2.80;99.90;;;;;;5091365;28;20276;-82
2021/01/27 10:24:08;;;;;;;6.45;3.80;;;2.70;99.90;;;;;;5092667;28;20291;-81
2021/01/27 10:26:38;;;;;;;5.65;4.03;;;2.80;99.90;;;;;;5092218;28;20279;-83
2021/01/27 10:29:19;;;;;;;3.95;3.10;;;2.80;99.90;;;;;;5092362;28;20233;-83
2021/01/27 10:31:49;;;;;;;3.47;2.53;;;2.90;99.90;;;;;;5092585;28;20211;-86
2021/01/27 10:34:34;;;;;;;4.53;3.20;;;2.70;99.90;;;;;;5091448;28;20211;-84
2021/01/27 10:37:01;;;;;;;7.22;2.70;;;2.60;99.90;;;;;;5097288;28;20314;-83
2021/01/27 10:39:29;;;;;;;2.78;2.50;;;2.60;99.90;;;;;;5092710;28;20676;-84
2021/01/27 10:42:23;;;;;;;4.07;3.58;;;2.70;99.90;;;;;;5092554;28;20315;-84
2021/01/27 10:45:27;;;;;;;3.38;2.20;;;2.70;99.90;;;;;;5094602;28;20296;-86
2021/01/27 10:47:59;;;;;;;5.15;2.65;;;2.80;99.90;;;;;;5083616;28;20687;-89
2021/01/27 10:50:26;;;;;;;2.13;1.92;;;2.90;99.90;;;;;;5097142;28;20695;-90
2021/01/27 10:52:54;;;;;;;3.22;2.88;;;3.00;99.90;;;;;;5097859;28;20676;-89
2021/01/27 10:55:21;;;;;;;4.32;3.10;;;3.40;99.90;;;;;;5097934;28;20646;-84
2021/01/27 10:57:48;;;;;;;3.08;2.00;;;3.30;99.90;;;;;;5097397;28;20308;-86
2021/01/27 11:00:17;;;;;;;2.90;2.70;;;3.00;99.90;;;;;;5093308;28;20679;-86
2021/01/27 11:02:44;;;;;;;4.22;3.20;;;3.00;99.90;;;;;;5095413;28;20432;-91
2021/01/27 11:05:12;;;;;;;3.05;2.85;;;3.10;99.90;;;;;;5095487;28;20245;-90
2021/01/27 11:07:38;;;;;;;5.13;3.95;;;3.00;99.90;;;;;;5097784;28;20220;-86
2021/01/27 11:10:07;;;;;;;4.65;4.15;;;3.00;99.90;;;;;;5060442;28;20299;-87
2021/01/27 11:12:34;;;;;;;6.10;3.03;;;3.00;99.90;;;;;;5095811;28;20287;-88
2021/01/27 11:15:00;;;;;;;4.80;4.22;;;3.00;99.90;;;;;;5087419;28;20451;-85
2021/01/27 11:17:27;;;;;;;10.57;4.07;;;3.00;99.90;;;;;;5075261;28;20288;-86
2021/01/27 11:19:56;;;;;;;9.65;3.85;;;2.90;99.90;;;;;;5069255;28;20229;-83
2021/01/27 11:22:23;;;;;;;5.78;3.95;;;2.90;99.90;;;;;;5082895;28;20288;-84
2021/01/27 11:24:49;;;;;;;3.60;3.40;;;2.90;99.90;;;;;;5086131;28;20201;-87
2021/01/27 11:27:17;;;;;;;6.15;3.65;;;2.90;99.90;;;;;;5085676;28;20296;-88
2021/01/27 11:29:43;;;;;;;4.50;3.38;;;2.90;99.90;;;;;;5088023;28;20208;-84
2021/01/27 11:32:10;;;;;;;3.05;2.80;;;3.00;99.90;;;;;;5085354;28;20705;-84
2021/01/27 11:34:36;;;;;;;4.88;2.33;;;2.90;99.90;;;;;;5089053;28;20288;-83
2021/01/27 11:37:02;;;;;;;6.00;4.20;;;2.90;99.90;;;;;;5083483;28;20233;-85
2021/01/27 11:39:29;;;;;;;3.10;2.80;;;2.90;99.90;;;;;;5082566;28;20288;-85
2021/01/27 11:41:55;;;;;;;3.05;2.35;;;2.90;99.90;;;;;;5085512;28;20292;-85
2021/01/27 11:44:23;;;;;;;3.92;3.05;;;2.90;99.90;;;;;;5082984;28;20212;-85
2021/01/27 11:46:49;;;;;;;3.60;3.30;;;3.00;99.90;;;;;;5082729;28;20281;-85
2021/01/27 11:49:15;;;;;;;2.60;2.40;;;3.10;99.90;;;;;;5082871;28;20197;-86
2021/01/27 11:51:42;;;;;;;3.30;3.10;;;3.20;99.90;;;;;;5084287;28;20336;-90
2021/01/27 11:54:08;;;;;;;3.50;3.20;;;3.50;99.90;;;;;;5086002;28;20198;-90
2021/01/27 11:56:35;;;;;;;3.58;2.85;;;3.60;99.90;;;;;;5080027;28;20221;-86
2021/01/27 11:59:01;;;;;;;4.32;3.25;;;3.70;99.90;;;;;;5082802;28;20283;-86
2021/01/27 12:01:30;;;;;;;4.53;3.28;;;3.70;99.90;;;;;;5083027;28;20669;-87
2021/01/27 12:03:56;;;;;;;2.30;1.58;;;3.70;99.90;;;;;;5080823;28;21125;-87
2021/01/27 12:06:23;;;;;;;2.78;2.58;;;3.80;99.90;;;;;;5084604;28;20221;-87
2021/01/27 12:08:50;;;;;;;4.05;2.45;;;3.70;99.90;;;;;;5082339;28;20281;-86
2021/01/27 12:11:16;;;;;;;4.80;3.10;;;3.80;99.90;;;;;;5084620;28;20522;-87
2021/01/27 12:13:43;;;;;;;5.00;2.42;;;3.90;99.90;;;;;;5082326;28;20474;-85
2021/01/27 12:16:09;;;;;;;2.40;1.98;;;4.00;99.90;;;;;;5081662;28;20283;-85
2021/01/27 12:18:36;;;;;;;2.45;2.25;;;4.20;99.90;;;;;;5085536;28;20280;-88
2021/01/27 12:21:03;;;;;;;1.95;1.85;;;4.20;99.90;;;;;;5087313;28;20217;-90
2021/01/27 12:23:30;;;;;;;1.70;1.60;;;4.00;99.90;;;;;;5089857;28;20280;-86
2021/01/27 12:25:56;;;;;;;2.60;2.40;;;4.30;99.90;;;;;;5088828;28;20197;-84
2021/01/27 12:28:22;;;;;;;2.30;2.03;;;4.10;99.90;;;;;;5080826;28;20221;-86
2021/01/27 12:30:49;;;;;;;3.05;2.80;;;4.00;99.90;;;;;;5083862;28;20280;-85
2021/01/27 12:33:16;;;;;;;2.72;2.35;;;4.00;99.90;;;;;;5082870;28;20274;-85
2021/01/27 12:35:44;;;;;;;2.97;2.00;;;4.10;99.90;;;;;;5081007;28;20221;-90
2021/01/27 12:38:10;;;;;;;2.83;2.63;;;4.00;99.90;;;;;;5084775;28;20206;-87
2021/01/27 12:40:37;;;;;;;2.30;2.10;;;3.80;99.90;;;;;;5083629;28;20205;-89
2021/01/27 12:43:03;;;;;;;3.30;1.73;;;4.20;99.90;;;;;;5092178;28;20692;-91
2021/01/27 12:45:30;;;;;;;4.88;2.92;;;4.30;99.90;;;;;;5086190;28;20300;-88
2021/01/27 12:47:57;;;;;;;7.40;4.63;;;3.90;99.90;;;;;;5084529;28;20216;-90
2021/01/27 12:50:24;;;;;;;12.07;4.65;;;3.90;99.90;;;;;;5084779;28;20316;-86
2021/01/27 12:52:52;;;;;;;7.22;4.25;;;3.80;99.90;;;;;;5029923;28;20198;-86
2021/01/27 12:55:21;;;;;;;5.68;3.85;;;4.00;99.90;;;;;;5083273;28;20232;-86
2021/01/27 12:57:47;;;;;;;8.75;5.00;;;4.20;99.90;;;;;;5084051;28;20696;-88
2021/01/27 13:00:19;;;;;;;3.00;2.55;;;4.30;99.90;;;;;;5083892;28;20217;-88
2021/01/27 13:02:46;;;;;;;4.63;2.92;;;4.40;99.90;;;;;;5081641;28;20196;-87
2021/01/27 13:05:14;;;;;;;2.67;2.40;;;4.30;99.90;;;;;;5082091;28;20661;-87
2021/01/27 13:07:40;;;;;;;2.75;1.95;;;4.10;99.90;;;;;;5081743;28;20276;-86
2021/01/27 13:10:09;;;;;;;1.60;1.50;;;4.10;99.90;;;;;;5081182;28;20673;-90
2021/01/27 13:12:37;;;;;;;2.35;2.15;;;4.10;99.90;;;;;;5083254;28;20253;-86
2021/01/27 13:15:05;;;;;;;3.58;2.63;;;3.90;99.90;;;;;;5082823;28;20202;-86
2021/01/27 13:17:32;;;;;;;2.70;2.50;;;3.90;99.90;;;;;;5081551;28;20221;-88
2021/01/27 13:19:58;;;;;;;2.85;2.50;;;3.90;99.90;;;;;;5081145;28;20284;-88
2021/01/27 13:22:24;;;;;;;2.75;1.90;;;3.70;99.90;;;;;;5082650;28;20193;-89
2021/01/27 13:24:51;;;;;;;2.95;2.10;;;3.70;99.90;;;;;;5081066;28;20194;-89
2021/01/27 13:27:19;;;;;;;2.60;2.40;;;3.60;99.90;;;;;;5082596;28;20279;-90